Time;durP1;ratioP1;P1;durP2;ratioP2;P2;SDS_P1;SDS_P2;PMS_P1;PMS_P2;Temp;Humidity;BMP_temperature;BMP_pressure;BME280_temperature;BME280_humidity;BME280_pressure;Samples;Min_cycle;Max_cycle;Signal;HPM_P1;HPM_P2
2023/12/26 00:00:06;;;;;;;6.17;3.63;;;8.30;99.90;;;;;;4994569;28;20226;-83
2023/12/26 00:02:39;;;;;;;6.13;3.67;;;8.40;99.90;;;;;;4965622;28;20220;-82
2023/12/26 00:05:08;;;;;;;5.17;3.87;;;8.40;99.90;;;;;;4961856;28;20322;-82
2023/12/26 00:07:35;;;;;;;4.73;3.33;;;8.40;99.90;;;;;;4960947;28;20331;-82
2023/12/26 00:10:02;;;;;;;6.17;3.67;;;8.40;99.90;;;;;;4964887;28;20227;-82
2023/12/26 00:12:28;;;;;;;4.70;3.40;;;8.40;99.90;;;;;;4963136;28;20536;-82
2023/12/26 00:14:55;;;;;;;5.30;3.43;;;8.40;99.90;;;;;;4964819;28;20228;-82
2023/12/26 00:17:22;;;;;;;5.20;3.50;;;8.40;99.90;;;;;;4961883;28;20231;-82
2023/12/26 00:19:49;;;;;;;4.40;3.33;;;8.40;99.90;;;;;;4964979;28;20233;-82
2023/12/26 00:22:18;;;;;;;4.57;3.30;;;8.40;99.90;;;;;;4966708;28;20248;-82
2023/12/26 00:24:44;;;;;;;4.87;2.90;;;8.40;99.90;;;;;;4965669;28;20285;-82
2023/12/26 00:27:11;;;;;;;5.33;2.90;;;8.40;99.90;;;;;;4957479;28;20317;-86
2023/12/26 00:29:38;;;;;;;5.10;3.17;;;8.40;99.90;;;;;;4964243;28;20306;-83
2023/12/26 00:32:05;;;;;;;7.13;3.13;;;8.40;99.90;;;;;;4965311;28;20694;-83
2023/12/26 00:34:32;;;;;;;5.90;3.10;;;8.40;99.90;;;;;;4961742;28;20324;-83
2023/12/26 00:36:59;;;;;;;3.97;2.20;;;8.40;99.90;;;;;;4964077;28;20437;-83
2023/12/26 00:39:27;;;;;;;3.73;2.43;;;8.40;99.90;;;;;;4980026;28;20711;-83
2023/12/26 00:41:53;;;;;;;3.30;1.90;;;8.40;99.90;;;;;;4963294;28;20226;-84
2023/12/26 00:44:20;;;;;;;5.70;2.37;;;8.40;99.90;;;;;;4963494;28;20228;-83
2023/12/26 00:46:47;;;;;;;3.57;1.80;;;8.40;99.90;;;;;;4966162;28;20615;-83
2023/12/26 00:49:15;;;;;;;5.00;1.87;;;8.30;99.90;;;;;;4958198;28;20236;-83
2023/12/26 00:51:41;;;;;;;3.50;1.17;;;8.30;99.90;;;;;;4992908;28;20292;-83
2023/12/26 00:54:08;;;;;;;4.10;1.40;;;8.30;99.90;;;;;;4997439;28;20227;-83
2023/12/26 00:56:36;;;;;;;3.40;1.20;;;8.30;99.90;;;;;;4963546;28;20331;-84
2023/12/26 00:59:03;;;;;;;3.67;1.30;;;8.30;99.90;;;;;;4962227;28;20317;-84
2023/12/26 01:01:34;;;;;;;2.80;1.00;;;8.30;99.90;;;;;;4963010;28;20259;-83
2023/12/26 01:04:00;;;;;;;2.57;1.20;;;8.20;99.90;;;;;;4962034;28;20229;-83
2023/12/26 01:06:27;;;;;;;2.93;1.20;;;8.20;99.90;;;;;;4978689;28;20340;-83
2023/12/26 01:08:54;;;;;;;1.97;0.90;;;8.20;99.90;;;;;;4962244;28;20241;-83
2023/12/26 01:11:21;;;;;;;2.97;1.03;;;8.20;99.90;;;;;;4958857;28;20756;-82
2023/12/26 01:13:50;;;;;;;2.63;1.00;;;8.20;99.90;;;;;;4960513;28;20214;-83
2023/12/26 01:16:18;;;;;;;2.63;1.00;;;8.20;99.90;;;;;;4962131;28;20244;-82
2023/12/26 01:18:45;;;;;;;2.80;1.20;;;8.20;99.90;;;;;;4959820;28;20775;-83
2023/12/26 01:21:12;;;;;;;2.57;1.00;;;8.20;99.90;;;;;;4961366;28;20286;-82
2023/12/26 01:23:39;;;;;;;1.77;1.10;;;8.20;99.90;;;;;;4966799;28;20234;-82
2023/12/26 01:26:06;;;;;;;3.30;1.00;;;8.10;99.90;;;;;;4953498;28;20230;-83
2023/12/26 01:28:33;;;;;;;3.30;1.00;;;8.10;99.90;;;;;;4974135;28;20263;-83
2023/12/26 01:31:02;;;;;;;1.67;0.87;;;8.10;99.90;;;;;;4963982;28;20242;-83
2023/12/26 01:33:29;;;;;;;3.27;0.90;;;8.10;99.90;;;;;;4957465;28;20535;-83
2023/12/26 01:35:56;;;;;;;2.47;1.00;;;8.10;99.90;;;;;;4959442;28;20284;-83
2023/12/26 01:38:23;;;;;;;2.40;1.07;;;8.10;99.90;;;;;;4957557;28;20295;-83
2023/12/26 01:40:50;;;;;;;4.73;1.10;;;8.10;99.90;;;;;;4990243;28;20341;-82
2023/12/26 01:43:17;;;;;;;3.50;0.90;;;8.20;99.90;;;;;;4960913;28;20230;-83
2023/12/26 01:45:44;;;;;;;2.43;1.07;;;8.20;99.90;;;;;;4957779;28;20708;-83
2023/12/26 01:48:13;;;;;;;2.47;1.10;;;8.10;99.90;;;;;;4959882;28;20346;-82
2023/12/26 01:50:40;;;;;;;1.83;0.93;;;8.10;99.90;;;;;;4958243;28;20230;-82
2023/12/26 01:53:06;;;;;;;1.00;0.80;;;8.10;99.90;;;;;;4960954;28;20316;-83
2023/12/26 01:55:33;;;;;;;3.10;1.57;;;8.20;99.90;;;;;;4959339;28;20227;-83
2023/12/26 01:58:01;;;;;;;2.87;1.40;;;8.20;99.90;;;;;;4969040;28;20225;-84
2023/12/26 02:00:28;;;;;;;1.53;1.27;;;8.20;99.90;;;;;;4959175;28;20479;-83
2023/12/26 02:02:55;;;;;;;3.27;1.63;;;8.20;99.90;;;;;;4958397;28;20646;-83
2023/12/26 02:05:24;;;;;;;2.83;1.50;;;8.20;99.90;;;;;;4960316;28;20226;-83
2023/12/26 02:07:53;;;;;;;2.97;1.80;;;8.20;99.90;;;;;;4991214;28;20225;-83
2023/12/26 02:10:19;;;;;;;2.50;1.97;;;8.20;99.90;;;;;;4956585;28;20261;-83
2023/12/26 02:12:46;;;;;;;3.20;2.07;;;8.20;99.90;;;;;;4962490;28;20218;-83
2023/12/26 02:15:14;;;;;;;3.27;2.40;;;8.20;99.90;;;;;;4960792;28;20222;-83
2023/12/26 02:17:41;;;;;;;2.47;2.20;;;8.20;99.90;;;;;;4961257;28;21663;-83
2023/12/26 02:20:09;;;;;;;2.47;1.90;;;8.30;99.90;;;;;;4956473;28;20603;-83
2023/12/26 02:22:38;;;;;;;2.40;2.10;;;8.30;99.90;;;;;;4963543;28;20290;-83
2023/12/26 02:25:07;;;;;;;2.57;1.80;;;8.30;99.90;;;;;;4961807;28;20277;-83
2023/12/26 02:27:36;;;;;;;2.73;1.90;;;8.30;99.90;;;;;;4952005;28;20558;-83
2023/12/26 02:30:05;;;;;;;4.23;1.77;;;8.30;99.90;;;;;;4959626;28;20237;-83
2023/12/26 02:32:35;;;;;;;2.90;1.80;;;8.30;99.90;;;;;;4957481;28;20237;-85
2023/12/26 02:35:05;;;;;;;2.73;1.63;;;8.30;99.90;;;;;;4958632;28;20257;-85
2023/12/26 02:37:32;;;;;;;1.57;1.40;;;8.30;99.90;;;;;;4956790;28;20236;-85
2023/12/26 02:39:59;;;;;;;2.17;1.40;;;8.30;99.90;;;;;;4953859;28;20608;-84
2023/12/26 02:42:29;;;;;;;1.43;1.13;;;8.30;99.90;;;;;;4958410;28;20308;-83
2023/12/26 02:44:57;;;;;;;2.87;1.27;;;8.30;99.90;;;;;;4956617;28;20226;-83
2023/12/26 02:47:24;;;;;;;2.17;0.90;;;8.40;99.90;;;;;;4957442;28;20276;-83
2023/12/26 02:49:51;;;;;;;1.50;1.17;;;8.40;99.90;;;;;;4956119;28;20979;-84
2023/12/26 02:52:19;;;;;;;1.17;0.87;;;8.30;99.90;;;;;;4963154;28;20217;-82
2023/12/26 02:54:46;;;;;;;1.13;0.80;;;8.30;99.90;;;;;;4955984;28;20257;-83
2023/12/26 02:57:13;;;;;;;1.37;1.17;;;8.40;99.90;;;;;;4958780;28;20661;-83
2023/12/26 02:59:41;;;;;;;1.00;0.80;;;8.30;99.90;;;;;;4956600;28;20297;-84
2023/12/26 03:02:08;;;;;;;1.00;0.77;;;8.40;99.90;;;;;;4955910;28;20801;-84
2023/12/26 03:04:35;;;;;;;2.63;1.00;;;8.30;99.90;;;;;;4962091;28;20222;-83
2023/12/26 03:07:02;;;;;;;1.93;1.10;;;8.30;99.90;;;;;;4954516;28;20658;-82
2023/12/26 03:09:29;;;;;;;2.10;0.90;;;8.40;99.90;;;;;;4973475;28;20288;-83
2023/12/26 03:11:56;;;;;;;1.77;0.87;;;8.30;99.90;;;;;;4957036;28;20253;-84
2023/12/26 03:14:23;;;;;;;1.80;0.90;;;8.30;99.90;;;;;;4961419;28;20758;-84
2023/12/26 03:16:51;;;;;;;1.50;0.90;;;8.30;99.90;;;;;;4955217;28;20542;-83
2023/12/26 03:19:18;;;;;;;1.30;0.90;;;8.30;99.90;;;;;;4954723;28;20345;-85
2023/12/26 03:21:44;;;;;;;1.00;0.77;;;8.30;99.90;;;;;;4961016;28;20922;-85
2023/12/26 03:24:11;;;;;;;2.10;0.90;;;8.30;99.90;;;;;;4960987;28;20315;-85
2023/12/26 03:26:38;;;;;;;1.43;0.80;;;8.30;99.90;;;;;;4957499;28;20232;-85
2023/12/26 03:29:05;;;;;;;1.37;0.80;;;8.40;99.90;;;;;;4958851;28;20226;-84
2023/12/26 03:31:32;;;;;;;0.80;0.63;;;8.30;99.90;;;;;;4960966;28;20419;-85
2023/12/26 03:34:00;;;;;;;1.47;0.90;;;8.30;99.90;;;;;;4957066;28;20311;-85
2023/12/26 03:36:28;;;;;;;0.60;0.60;;;8.30;99.90;;;;;;4955203;28;20225;-84
2023/12/26 03:38:55;;;;;;;1.83;0.70;;;8.40;99.90;;;;;;4959062;28;20218;-84
2023/12/26 03:41:22;;;;;;;2.23;0.70;;;8.30;99.90;;;;;;4958453;28;20228;-85
2023/12/26 03:43:48;;;;;;;0.97;0.53;;;8.40;99.90;;;;;;4956655;28;20246;-84
2023/12/26 03:46:16;;;;;;;1.10;0.60;;;8.40;99.90;;;;;;4986562;28;20649;-85
2023/12/26 03:48:44;;;;;;;4.17;0.80;;;8.40;99.90;;;;;;4987013;28;20231;-84
2023/12/26 03:51:15;;;;;;;3.63;0.70;;;8.40;99.90;;;;;;4957110;28;20307;-83
2023/12/26 03:53:42;;;;;;;2.40;0.80;;;8.40;99.90;;;;;;4963618;28;20273;-83
2023/12/26 03:56:09;;;;;;;0.70;0.57;;;8.30;99.90;;;;;;4958270;28;20226;-84
2023/12/26 03:58:36;;;;;;;0.70;0.60;;;8.40;99.90;;;;;;4957416;28;20229;-84
2023/12/26 04:01:03;;;;;;;1.53;0.50;;;8.40;99.90;;;;;;4950939;28;20306;-83
2023/12/26 04:03:29;;;;;;;2.37;0.70;;;8.40;99.90;;;;;;4957471;28;20232;-83
2023/12/26 04:05:56;;;;;;;2.10;0.60;;;8.40;99.90;;;;;;4959197;28;20218;-84
2023/12/26 04:08:24;;;;;;;1.83;0.70;;;8.30;99.90;;;;;;4977801;28;20226;-84
2023/12/26 04:10:52;;;;;;;2.47;0.70;;;8.30;99.90;;;;;;4957954;28;20308;-84
2023/12/26 04:13:19;;;;;;;1.23;0.70;;;8.30;99.90;;;;;;4972388;28;20299;-84
2023/12/26 04:15:46;;;;;;;1.57;0.60;;;8.30;99.90;;;;;;4957737;28;20221;-84
2023/12/26 04:18:13;;;;;;;3.70;0.80;;;8.30;99.90;;;;;;4958243;28;20248;-83
2023/12/26 04:20:40;;;;;;;1.10;0.67;;;8.30;99.90;;;;;;4951385;28;20230;-84
2023/12/26 04:23:06;;;;;;;2.13;0.70;;;8.30;99.90;;;;;;4953330;28;20230;-83
2023/12/26 04:25:34;;;;;;;2.70;0.70;;;8.30;99.90;;;;;;4956029;28;20218;-83
2023/12/26 04:28:01;;;;;;;2.90;0.70;;;8.40;99.90;;;;;;4958685;28;20309;-83
2023/12/26 04:30:28;;;;;;;2.77;0.60;;;8.30;99.90;;;;;;4956226;28;20230;-84
2023/12/26 04:32:55;;;;;;;1.70;0.50;;;8.30;99.90;;;;;;4988997;28;20287;-83
2023/12/26 04:35:22;;;;;;;1.50;0.50;;;8.30;99.90;;;;;;4961345;28;20328;-83
2023/12/26 04:37:49;;;;;;;3.13;0.77;;;8.30;99.90;;;;;;4958581;28;20242;-83
2023/12/26 04:40:16;;;;;;;1.43;0.70;;;8.40;99.90;;;;;;4958798;28;20303;-83
2023/12/26 04:42:44;;;;;;;2.10;0.80;;;8.40;99.90;;;;;;4953262;28;20242;-83
2023/12/26 04:45:12;;;;;;;2.00;0.70;;;8.30;99.90;;;;;;4939609;28;20619;-84
2023/12/26 04:47:39;;;;;;;1.23;0.80;;;8.30;99.90;;;;;;4947851;28;20233;-83
2023/12/26 04:50:06;;;;;;;2.57;0.80;;;8.30;99.90;;;;;;4994438;28;20659;-83
2023/12/26 04:52:33;;;;;;;4.13;1.30;;;8.30;99.90;;;;;;4963756;28;20257;-84
2023/12/26 04:54:59;;;;;;;2.87;1.10;;;8.30;99.90;;;;;;4961388;28;20226;-84
2023/12/26 04:57:27;;;;;;;5.27;1.30;;;8.30;99.90;;;;;;4962200;28;20229;-84
2023/12/26 04:59:55;;;;;;;6.40;1.40;;;8.30;99.90;;;;;;4962698;28;20626;-83
2023/12/26 05:02:22;;;;;;;7.63;1.37;;;8.20;99.90;;;;;;4955938;28;20343;-84
2023/12/26 05:04:49;;;;;;;6.53;2.00;;;8.20;99.90;;;;;;4960950;28;20238;-84
2023/12/26 05:07:16;;;;;;;9.57;1.90;;;8.20;99.90;;;;;;4964816;28;20223;-84
2023/12/26 05:09:43;;;;;;;7.67;1.60;;;8.20;99.90;;;;;;4961589;28;20233;-84
2023/12/26 05:12:10;;;;;;;6.33;2.07;;;8.20;99.90;;;;;;4988453;28;20233;-83
2023/12/26 05:14:37;;;;;;;11.37;1.73;;;8.20;99.90;;;;;;4963466;28;20221;-83
2023/12/26 05:17:05;;;;;;;5.67;1.80;;;8.20;99.90;;;;;;4959416;28;20745;-83
2023/12/26 05:19:32;;;;;;;9.97;2.00;;;8.10;99.90;;;;;;4940046;28;20240;-83
2023/12/26 05:21:59;;;;;;;8.27;1.80;;;8.10;99.90;;;;;;4960135;28;20234;-83
2023/12/26 05:24:27;;;;;;;6.43;2.20;;;8.10;99.90;;;;;;4961229;28;20289;-83
2023/12/26 05:26:54;;;;;;;8.10;2.20;;;8.00;99.90;;;;;;4958893;28;20225;-83
2023/12/26 05:29:21;;;;;;;11.90;2.13;;;7.90;99.90;;;;;;4961443;28;20218;-83
2023/12/26 05:31:48;;;;;;;12.77;2.63;;;7.90;99.90;;;;;;4958899;28;20231;-83
2023/12/26 05:34:18;;;;;;;10.77;2.30;;;7.80;99.90;;;;;;4989123;28;20243;-83
2023/12/26 05:36:45;;;;;;;13.30;2.47;;;7.80;99.90;;;;;;4963178;28;20248;-83
2023/12/26 05:39:12;;;;;;;10.73;2.40;;;7.80;99.90;;;;;;4959293;28;20237;-83
2023/12/26 05:41:41;;;;;;;13.93;2.70;;;7.70;99.90;;;;;;4958450;28;20705;-84
2023/12/26 05:44:08;;;;;;;8.07;2.07;;;7.70;99.90;;;;;;4960368;28;20309;-83
2023/12/26 05:46:36;;;;;;;11.67;2.33;;;7.60;99.90;;;;;;4961848;28;20978;-83
2023/12/26 05:49:03;;;;;;;8.80;2.07;;;7.60;99.90;;;;;;4961146;28;20229;-81
2023/12/26 05:51:32;;;;;;;12.53;2.60;;;7.60;99.90;;;;;;4995106;28;20228;-83
2023/12/26 05:53:59;;;;;;;9.90;2.37;;;7.60;99.90;;;;;;4959912;28;20343;-84
2023/12/26 05:56:26;;;;;;;14.33;2.93;;;7.60;99.90;;;;;;4960103;28;20234;-84
2023/12/26 05:58:53;;;;;;;11.10;2.70;;;7.60;99.90;;;;;;4959534;28;21301;-83
2023/12/26 06:01:20;;;;;;;12.07;2.40;;;7.60;99.90;;;;;;4961183;28;20610;-85
2023/12/26 06:03:47;;;;;;;9.83;2.07;;;7.60;99.90;;;;;;4962917;28;20227;-84
2023/12/26 06:06:14;;;;;;;10.07;2.40;;;7.60;99.90;;;;;;4969102;28;20888;-84
2023/12/26 06:08:43;;;;;;;7.47;2.37;;;7.60;99.90;;;;;;4972478;28;20233;-86
2023/12/26 06:11:10;;;;;;;11.33;2.77;;;7.50;99.90;;;;;;4961126;28;20222;-85
2023/12/26 06:13:37;;;;;;;10.57;1.93;;;7.50;99.90;;;;;;4963700;28;20230;-86
2023/12/26 06:16:05;;;;;;;11.40;2.97;;;7.50;99.90;;;;;;4960631;28;20250;-85
2023/12/26 06:18:33;;;;;;;11.67;2.80;;;7.50;99.90;;;;;;4962040;28;20691;-86
2023/12/26 06:21:01;;;;;;;14.43;2.93;;;7.50;99.90;;;;;;4964135;28;20347;-85
2023/12/26 06:23:27;;;;;;;11.50;2.60;;;7.40;99.90;;;;;;4960894;28;20597;-85
2023/12/26 06:25:57;;;;;;;11.87;2.40;;;7.40;99.90;;;;;;4959215;28;21217;-84
2023/12/26 06:28:24;;;;;;;11.47;2.13;;;7.50;99.90;;;;;;4951558;28;20218;-85
2023/12/26 06:30:51;;;;;;;14.07;2.77;;;7.50;99.90;;;;;;4961333;28;20764;-85
2023/12/26 06:33:19;;;;;;;11.70;3.50;;;7.50;99.90;;;;;;4960316;28;20216;-84
2023/12/26 06:35:46;;;;;;;9.53;2.57;;;7.50;99.90;;;;;;4964167;28;20326;-84
2023/12/26 06:38:13;;;;;;;10.20;2.60;;;7.50;99.90;;;;;;4963472;28;20233;-85
2023/12/26 06:40:40;;;;;;;9.70;2.57;;;7.50;99.90;;;;;;4965455;28;20277;-85
2023/12/26 06:43:09;;;;;;;13.27;2.63;;;7.40;99.90;;;;;;4956784;28;20454;-86
2023/12/26 06:45:37;;;;;;;8.50;2.30;;;7.40;99.90;;;;;;4990231;28;20234;-84
2023/12/26 06:48:04;;;;;;;14.17;2.70;;;7.40;99.90;;;;;;4961530;28;20371;-84
2023/12/26 06:50:34;;;;;;;12.37;2.60;;;7.40;99.90;;;;;;4957329;28;20954;-84
2023/12/26 06:53:01;;;;;;;10.77;2.33;;;7.50;99.90;;;;;;4954167;28;20229;-85
2023/12/26 06:55:27;;;;;;;9.33;2.60;;;7.40;99.90;;;;;;4961267;28;20596;-84
2023/12/26 06:57:54;;;;;;;15.23;2.83;;;7.40;99.90;;;;;;4950721;28;20232;-85
2023/12/26 07:00:21;;;;;;;13.80;3.30;;;7.50;99.90;;;;;;4958388;28;20247;-85
2023/12/26 07:02:48;;;;;;;14.90;2.87;;;7.50;99.90;;;;;;4941376;28;20315;-85
2023/12/26 07:05:15;;;;;;;9.03;2.77;;;7.50;99.90;;;;;;4959683;28;20282;-85
2023/12/26 07:07:42;;;;;;;10.90;3.03;;;7.50;99.90;;;;;;4954453;28;20243;-84
2023/12/26 07:10:09;;;;;;;10.27;2.50;;;7.50;99.90;;;;;;4955818;28;20635;-85
2023/12/26 07:12:37;;;;;;;11.83;2.93;;;7.50;99.90;;;;;;4978460;28;20250;-85
2023/12/26 07:15:05;;;;;;;8.17;2.17;;;7.50;99.90;;;;;;4996680;28;20273;-83
2023/12/26 07:17:33;;;;;;;12.40;2.23;;;7.60;99.90;;;;;;4971404;28;20329;-83
2023/12/26 07:19:59;;;;;;;13.50;2.87;;;7.60;99.90;;;;;;4958305;28;20310;-82
2023/12/26 07:22:26;;;;;;;9.73;3.27;;;7.60;99.90;;;;;;4959372;28;20799;-82
2023/12/26 07:24:53;;;;;;;14.20;3.13;;;7.60;99.90;;;;;;4960856;28;20338;-82
2023/12/26 07:27:20;;;;;;;12.07;2.70;;;7.70;99.90;;;;;;4957893;28;20321;-83
2023/12/26 07:29:46;;;;;;;13.50;2.97;;;7.60;99.90;;;;;;4961664;28;20716;-83
2023/12/26 07:32:13;;;;;;;11.57;2.90;;;7.60;99.90;;;;;;4962026;28;20222;-83
2023/12/26 07:34:42;;;;;;;7.93;2.30;;;7.60;99.90;;;;;;4994799;28;20321;-82
2023/12/26 07:37:08;;;;;;;11.67;2.90;;;7.60;99.90;;;;;;4963758;28;20285;-82
2023/12/26 07:39:35;;;;;;;10.47;2.87;;;7.60;99.90;;;;;;4954310;28;20324;-82
2023/12/26 07:42:02;;;;;;;16.90;3.13;;;7.60;99.90;;;;;;4960447;28;20986;-82
2023/12/26 07:44:31;;;;;;;10.03;2.63;;;7.60;99.90;;;;;;4965366;28;20704;-82
2023/12/26 07:46:57;;;;;;;14.67;2.80;;;7.60;99.90;;;;;;4965534;28;20325;-83
2023/12/26 07:49:24;;;;;;;9.57;2.57;;;7.60;99.90;;;;;;4960114;28;20827;-83
2023/12/26 07:51:52;;;;;;;10.37;2.10;;;7.60;99.90;;;;;;4957851;28;20247;-83
2023/12/26 07:54:19;;;;;;;8.93;2.10;;;7.60;99.90;;;;;;4961900;28;20221;-82
2023/12/26 07:56:46;;;;;;;13.07;2.77;;;7.60;99.90;;;;;;4959492;28;20304;-82
2023/12/26 07:59:13;;;;;;;13.07;2.97;;;7.60;99.90;;;;;;4965093;28;20313;-83
2023/12/26 08:01:40;;;;;;;15.00;2.93;;;7.60;99.90;;;;;;4958564;28;20309;-82
2023/12/26 08:04:07;;;;;;;12.73;2.63;;;7.60;99.90;;;;;;4961300;28;20262;-83
2023/12/26 08:06:34;;;;;;;15.20;2.60;;;7.70;99.90;;;;;;4962792;28;20221;-82
2023/12/26 08:09:03;;;;;;;13.83;2.87;;;7.70;99.90;;;;;;4962372;28;20652;-81
2023/12/26 08:11:30;;;;;;;14.70;3.37;;;7.70;99.90;;;;;;4964578;28;20233;-82
2023/12/26 08:13:57;;;;;;;11.40;2.87;;;7.70;99.90;;;;;;4970271;28;20554;-82
2023/12/26 08:16:24;;;;;;;15.20;2.80;;;7.70;99.90;;;;;;4962778;28;20254;-82
2023/12/26 08:18:51;;;;;;;21.03;3.97;;;7.70;99.90;;;;;;4964816;28;20701;-82
2023/12/26 08:21:18;;;;;;;16.30;3.97;;;7.70;99.90;;;;;;4966894;28;20244;-82
2023/12/26 08:23:45;;;;;;;16.73;3.47;;;7.70;99.90;;;;;;4967146;28;20899;-83
2023/12/26 08:26:13;;;;;;;11.83;2.50;;;7.70;99.90;;;;;;4965089;28;20518;-83
2023/12/26 08:28:41;;;;;;;15.97;2.93;;;7.70;99.90;;;;;;4946691;28;20237;-83
2023/12/26 08:31:08;;;;;;;13.57;3.37;;;7.70;99.90;;;;;;4944403;28;20312;-83
2023/12/26 08:33:35;;;;;;;15.70;3.13;;;7.70;99.90;;;;;;4941713;28;20685;-84
2023/12/26 08:36:02;;;;;;;11.63;3.27;;;7.70;99.90;;;;;;4935802;28;20238;-83
2023/12/26 08:38:29;;;;;;;13.20;3.00;;;7.70;99.90;;;;;;4944953;28;20305;-84
2023/12/26 08:40:56;;;;;;;13.20;2.87;;;7.70;99.90;;;;;;4941536;28;20231;-83
2023/12/26 08:43:24;;;;;;;12.63;2.70;;;7.70;99.90;;;;;;4965131;28;20592;-84
2023/12/26 08:45:50;;;;;;;12.27;3.43;;;7.70;99.90;;;;;;4963890;28;20232;-85
2023/12/26 08:48:17;;;;;;;13.27;3.07;;;7.70;99.90;;;;;;4959324;28;20236;-83
2023/12/26 08:50:44;;;;;;;12.67;2.97;;;7.70;99.90;;;;;;4995186;28;20763;-85
2023/12/26 08:53:10;;;;;;;10.97;2.80;;;7.70;99.90;;;;;;4963352;28;20312;-85
2023/12/26 08:55:37;;;;;;;11.27;2.47;;;7.70;99.90;;;;;;4963078;28;20733;-85
2023/12/26 08:58:04;;;;;;;11.40;2.73;;;7.80;99.90;;;;;;4968622;28;20523;-85
2023/12/26 09:00:32;;;;;;;14.37;3.20;;;7.70;99.90;;;;;;4959127;28;20242;-85
2023/12/26 09:03:01;;;;;;;13.27;2.60;;;7.70;99.90;;;;;;4963103;28;20326;-85
2023/12/26 09:05:27;;;;;;;17.30;3.50;;;7.70;99.90;;;;;;4958057;28;20450;-85
2023/12/26 09:07:54;;;;;;;10.37;2.87;;;7.70;99.90;;;;;;4963566;28;20307;-85
2023/12/26 09:10:21;;;;;;;10.83;2.77;;;7.80;99.90;;;;;;4966055;28;20219;-86
2023/12/26 09:12:47;;;;;;;15.40;2.77;;;7.70;99.90;;;;;;4959493;28;20325;-85
2023/12/26 09:15:14;;;;;;;8.93;2.50;;;7.80;99.90;;;;;;4962813;28;20238;-85
2023/12/26 09:17:44;;;;;;;9.63;2.80;;;7.80;99.90;;;;;;4961746;28;20242;-85
2023/12/26 09:20:10;;;;;;;9.40;2.57;;;7.80;99.90;;;;;;4967652;28;20233;-84
2023/12/26 09:22:38;;;;;;;10.63;2.57;;;7.70;99.90;;;;;;4966522;28;20292;-84
2023/12/26 09:25:07;;;;;;;12.30;3.03;;;7.70;99.90;;;;;;4968748;28;20230;-85
2023/12/26 09:27:34;;;;;;;13.60;3.57;;;7.70;99.90;;;;;;4963443;28;20934;-84
2023/12/26 09:30:00;;;;;;;12.63;2.90;;;7.70;99.90;;;;;;4963648;28;20238;-85
2023/12/26 09:32:28;;;;;;;12.50;2.73;;;7.80;99.90;;;;;;4965398;28;20581;-85
2023/12/26 09:34:56;;;;;;;10.83;3.20;;;7.70;99.90;;;;;;4969500;28;20232;-85
2023/12/26 09:37:22;;;;;;;18.07;3.60;;;7.80;99.90;;;;;;4965880;28;20234;-84
2023/12/26 09:39:49;;;;;;;15.30;3.10;;;7.80;99.90;;;;;;4963300;28;20220;-85
2023/12/26 09:42:22;;;;;;;13.10;3.07;;;7.80;99.90;;;;;;4958731;28;20317;-85
2023/12/26 09:44:49;;;;;;;12.23;3.43;;;7.80;99.90;;;;;;4971022;28;20223;-85
2023/12/26 09:47:19;;;;;;;10.80;3.17;;;7.80;99.90;;;;;;4944748;28;20321;-85
2023/12/26 09:49:47;;;;;;;10.23;2.50;;;7.80;99.90;;;;;;4946035;28;20219;-85
2023/12/26 09:52:15;;;;;;;12.63;3.07;;;7.90;99.90;;;;;;4957744;28;20232;-85
2023/12/26 09:54:44;;;;;;;15.20;2.87;;;7.90;99.90;;;;;;4971069;28;20564;-86
2023/12/26 09:57:11;;;;;;;10.33;3.00;;;7.90;99.90;;;;;;4955038;28;20235;-85
2023/12/26 09:59:40;;;;;;;15.47;3.13;;;7.90;99.90;;;;;;4949377;28;20257;-85
2023/12/26 10:02:11;;;;;;;9.37;2.60;;;7.90;99.90;;;;;;4962391;28;20233;-86
2023/12/26 10:04:38;;;;;;;11.13;2.20;;;7.90;99.90;;;;;;4961487;28;20244;-85
2023/12/26 10:07:05;;;;;;;8.83;2.80;;;7.90;99.90;;;;;;4967271;28;20230;-85
2023/12/26 10:09:33;;;;;;;12.40;2.90;;;7.90;99.90;;;;;;4967992;28;20231;-84
2023/12/26 10:12:00;;;;;;;12.07;2.80;;;7.90;99.90;;;;;;4964179;28;20308;-85
2023/12/26 10:14:30;;;;;;;12.73;3.30;;;7.90;99.90;;;;;;4972060;28;20265;-84
2023/12/26 10:16:57;;;;;;;11.27;2.80;;;7.80;99.90;;;;;;4962185;28;20808;-85
2023/12/26 10:19:24;;;;;;;10.03;2.70;;;7.80;99.90;;;;;;4963899;28;20702;-85
2023/12/26 10:21:52;;;;;;;10.97;2.63;;;7.80;99.90;;;;;;4960254;28;20311;-84
2023/12/26 10:24:19;;;;;;;9.03;2.50;;;7.80;99.90;;;;;;4999900;28;20324;-85
2023/12/26 10:26:47;;;;;;;9.80;2.33;;;7.80;99.90;;;;;;4967124;28;20784;-85
2023/12/26 10:29:15;;;;;;;12.97;2.97;;;7.90;99.90;;;;;;4962888;28;20307;-85
2023/12/26 10:31:43;;;;;;;9.40;2.43;;;7.90;99.90;;;;;;4965425;28;20236;-85
2023/12/26 10:34:17;;;;;;;6.37;2.20;;;7.90;99.90;;;;;;4963719;28;20658;-85
2023/12/26 10:36:45;;;;;;;11.53;2.70;;;7.90;99.90;;;;;;4964801;28;20219;-84
2023/12/26 10:39:12;;;;;;;9.30;2.50;;;8.00;99.90;;;;;;4965706;28;20326;-84
2023/12/26 10:41:40;;;;;;;9.40;2.27;;;8.00;99.90;;;;;;4961057;28;20227;-85
2023/12/26 10:44:09;;;;;;;12.23;3.07;;;8.10;99.90;;;;;;4963608;28;20238;-84
2023/12/26 10:46:36;;;;;;;11.87;2.40;;;8.10;99.90;;;;;;4995512;28;20237;-84
2023/12/26 10:49:05;;;;;;;7.10;2.10;;;8.10;99.90;;;;;;4967347;28;20231;-84
2023/12/26 10:51:32;;;;;;;8.53;2.20;;;8.00;99.90;;;;;;4968071;28;20240;-84
2023/12/26 10:54:14;;;;;;;7.53;1.70;;;8.00;99.90;;;;;;4956168;28;20238;-84
2023/12/26 10:56:42;;;;;;;8.43;1.80;;;7.90;99.90;;;;;;4940493;28;20740;-83
2023/12/26 10:59:12;;;;;;;7.93;1.83;;;7.80;99.90;;;;;;4978639;28;20289;-84
2023/12/26 11:01:37;;;;;;;7.17;1.80;;;7.80;99.90;;;;;;4965090;28;20328;-82
2023/12/26 11:04:04;;;;;;;7.20;2.07;;;7.60;99.90;;;;;;4965144;28;20305;-84
2023/12/26 11:06:30;;;;;;;8.53;1.97;;;7.60;99.90;;;;;;4959704;28;20221;-83
2023/12/26 11:08:57;;;;;;;11.53;2.33;;;7.50;99.90;;;;;;4962280;28;20242;-83
2023/12/26 11:11:23;;;;;;;9.00;2.43;;;7.40;99.90;;;;;;4966576;28;20220;-84
2023/12/26 11:13:51;;;;;;;6.87;2.00;;;7.40;99.90;;;;;;4965302;28;20745;-85
2023/12/26 11:16:20;;;;;;;11.07;2.87;;;7.30;99.90;;;;;;4973977;28;20269;-82
2023/12/26 11:18:46;;;;;;;8.47;2.27;;;7.30;99.90;;;;;;4965963;28;20229;-83
2023/12/26 11:21:15;;;;;;;12.70;2.63;;;7.30;99.90;;;;;;4962753;28;20222;-82
2023/12/26 11:23:41;;;;;;;11.10;3.10;;;7.30;99.90;;;;;;4966744;28;20264;-83
2023/12/26 11:26:09;;;;;;;9.67;2.30;;;7.30;99.90;;;;;;4966838;28;20255;-82
2023/12/26 11:28:36;;;;;;;7.27;2.10;;;7.30;99.90;;;;;;4998957;28;20218;-82
2023/12/26 11:31:02;;;;;;;7.37;2.13;;;7.20;99.90;;;;;;4965318;28;20225;-82
2023/12/26 11:33:30;;;;;;;7.63;2.50;;;7.20;99.90;;;;;;4985366;28;20530;-82
2023/12/26 11:35:57;;;;;;;10.57;2.30;;;7.30;99.90;;;;;;4967360;28;20226;-82
2023/12/26 11:38:24;;;;;;;8.87;2.10;;;7.20;99.90;;;;;;4965925;28;20235;-82
2023/12/26 11:40:49;;;;;;;9.27;2.03;;;7.20;99.90;;;;;;4984574;28;20236;-82
2023/12/26 11:43:17;;;;;;;9.27;1.93;;;7.20;99.90;;;;;;4966015;28;20237;-82
2023/12/26 11:45:43;;;;;;;11.60;2.40;;;7.20;99.90;;;;;;4968933;28;20296;-82
2023/12/26 11:48:09;;;;;;;9.70;2.13;;;7.20;99.90;;;;;;4969651;28;20339;-84
2023/12/26 11:50:37;;;;;;;9.87;2.33;;;7.20;99.90;;;;;;4965705;28;20223;-83
2023/12/26 11:53:03;;;;;;;9.47;2.67;;;7.20;99.90;;;;;;4962492;28;20257;-83
2023/12/26 11:55:29;;;;;;;11.23;2.90;;;7.30;99.90;;;;;;4961801;28;20260;-83
2023/12/26 11:57:56;;;;;;;9.03;2.83;;;7.30;99.90;;;;;;4969564;28;20697;-84
2023/12/26 12:00:23;;;;;;;8.67;2.50;;;7.30;99.90;;;;;;4963320;28;20616;-84
2023/12/26 12:02:49;;;;;;;11.03;3.03;;;7.30;99.90;;;;;;4963095;28;20229;-84
2023/12/26 12:05:16;;;;;;;14.40;3.30;;;7.30;99.90;;;;;;4962927;28;20231;-82
2023/12/26 12:08:10;;;;;;;11.13;2.70;;;7.40;99.90;;;;;;4984731;28;20324;-82
2023/12/26 12:10:37;;;;;;;10.97;2.57;;;7.30;99.90;;;;;;4969823;28;20230;-82
2023/12/26 12:13:04;;;;;;;11.67;2.93;;;7.40;99.90;;;;;;4965236;28;20230;-82
2023/12/26 12:15:30;;;;;;;12.40;2.60;;;7.40;99.90;;;;;;4965806;28;20244;-82
2023/12/26 12:17:57;;;;;;;11.30;3.10;;;7.40;99.90;;;;;;4944916;28;20290;-82
2023/12/26 12:20:23;;;;;;;13.60;2.80;;;7.40;99.90;;;;;;4974669;28;20226;-82
2023/12/26 12:22:50;;;;;;;12.97;3.20;;;7.40;99.90;;;;;;4971717;28;20231;-81
2023/12/26 12:25:17;;;;;;;12.43;3.00;;;7.40;99.90;;;;;;5001302;28;20249;-81
2023/12/26 12:28:08;;;;;;;10.43;2.73;;;7.50;99.90;;;;;;4970335;28;20236;-82
2023/12/26 12:30:35;;;;;;;15.63;3.20;;;7.50;99.90;;;;;;4970693;28;20849;-82
2023/12/26 12:33:18;;;;;;;10.70;3.30;;;7.50;99.90;;;;;;5003409;28;20256;-82
2023/12/26 12:35:48;;;;;;;14.10;3.23;;;7.50;99.90;;;;;;4966554;28;20250;-81
2023/12/26 12:38:16;;;;;;;10.90;2.73;;;7.60;99.90;;;;;;5004386;28;20256;-82
2023/12/26 12:40:43;;;;;;;11.03;2.73;;;7.60;99.90;;;;;;4972758;28;20238;-82
2023/12/26 12:43:10;;;;;;;12.77;3.10;;;7.60;99.90;;;;;;4969929;28;20245;-82
2023/12/26 12:45:36;;;;;;;16.00;3.27;;;7.70;99.90;;;;;;4999528;28;20897;-82
2023/12/26 12:48:03;;;;;;;12.70;2.70;;;7.70;99.90;;;;;;5004190;28;20696;-81
2023/12/26 12:50:30;;;;;;;9.93;2.73;;;7.70;99.90;;;;;;4969817;28;20226;-81
2023/12/26 12:52:56;;;;;;;12.13;2.40;;;7.60;99.90;;;;;;4962933;28;20290;-81